sensor_id;sensor_type;location;lat;lon;timestamp;temperature;humidity
23073;DHT22;67971;51.046;3.732;2023-04-30T00:01:52;12.10;99.90
23073;DHT22;67971;51.046;3.732;2023-04-30T00:04:18;12.10;99.90
23073;DHT22;67971;51.046;3.732;2023-04-30T00:06:44;12.20;99.90
23073;DHT22;67971;51.046;3.732;2023-04-30T00:09:09;12.10;99.90
23073;DHT22;67971;51.046;3.732;2023-04-30T00:11:35;12.00;99.90
23073;DHT22;67971;51.046;3.732;2023-04-30T00:14:01;12.00;99.90
23073;DHT22;67971;51.046;3.732;2023-04-30T00:16:26;12.00;99.90
23073;DHT22;67971;51.046;3.732;2023-04-30T00:18:52;12.00;99.90
23073;DHT22;67971;51.046;3.732;2023-04-30T00:21:18;11.90;99.90
23073;DHT22;67971;51.046;3.732;2023-04-30T00:23:43;11.90;99.90
23073;DHT22;67971;51.046;3.732;2023-04-30T00:26:09;11.90;99.90
23073;DHT22;67971;51.046;3.732;2023-04-30T00:28:35;11.80;99.90
23073;DHT22;67971;51.046;3.732;2023-04-30T00:31:00;11.80;99.90
23073;DHT22;67971;51.046;3.732;2023-04-30T00:33:27;11.80;99.90
23073;DHT22;67971;51.046;3.732;2023-04-30T00:35:52;11.80;99.90
23073;DHT22;67971;51.046;3.732;2023-04-30T00:38:18;11.80;99.90
23073;DHT22;67971;51.046;3.732;2023-04-30T00:40:44;11.80;99.90
23073;DHT22;67971;51.046;3.732;2023-04-30T00:43:10;11.70;99.90
23073;DHT22;67971;51.046;3.732;2023-04-30T00:45:36;11.70;99.90
23073;DHT22;67971;51.046;3.732;2023-04-30T00:48:02;11.60;99.90
23073;DHT22;67971;51.046;3.732;2023-04-30T00:50:28;11.60;99.90
23073;DHT22;67971;51.046;3.732;2023-04-30T00:52:54;11.60;99.90
23073;DHT22;67971;51.046;3.732;2023-04-30T00:55:20;11.60;99.90
23073;DHT22;67971;51.046;3.732;2023-04-30T00:57:46;11.50;99.90
23073;DHT22;67971;51.046;3.732;2023-04-30T01:00:12;11.50;99.90
23073;DHT22;67971;51.046;3.732;2023-04-30T01:02:38;11.50;99.90
23073;DHT22;67971;51.046;3.732;2023-04-30T01:05:05;11.40;99.90
23073;DHT22;67971;51.046;3.732;2023-04-30T01:07:35;11.40;99.90
23073;DHT22;67971;51.046;3.732;2023-04-30T01:10:01;11.30;99.90
23073;DHT22;67971;51.046;3.732;2023-04-30T01:12:54;11.20;99.90
23073;DHT22;67971;51.046;3.732;2023-04-30T01:18:09;11.10;99.90
23073;DHT22;67971;51.046;3.732;2023-04-30T01:20:42;11.10;99.90
23073;DHT22;67971;51.046;3.732;2023-04-30T01:23:33;11.10;99.90
23073;DHT22;67971;51.046;3.732;2023-04-30T01:29:12;11.10;99.90
23073;DHT22;67971;51.046;3.732;2023-04-30T01:31:42;10.90;99.90
23073;DHT22;67971;51.046;3.732;2023-04-30T01:34:08;10.90;99.90
23073;DHT22;67971;51.046;3.732;2023-04-30T01:37:07;10.90;99.90
23073;DHT22;67971;51.046;3.732;2023-04-30T01:50:28;11.00;99.90
23073;DHT22;67971;51.046;3.732;2023-04-30T01:53:01;11.10;99.90
23073;DHT22;67971;51.046;3.732;2023-04-30T01:55:36;11.10;99.90
23073;DHT22;67971;51.046;3.732;2023-04-30T01:58:11;11.00;99.90
23073;DHT22;67971;51.046;3.732;2023-04-30T02:00:37;10.90;99.90
23073;DHT22;67971;51.046;3.732;2023-04-30T02:03:03;10.80;99.90
23073;DHT22;67971;51.046;3.732;2023-04-30T02:05:29;10.80;99.90
23073;DHT22;67971;51.046;3.732;2023-04-30T02:07:55;10.80;99.90
23073;DHT22;67971;51.046;3.732;2023-04-30T02:10:23;10.90;99.90
23073;DHT22;67971;51.046;3.732;2023-04-30T02:12:49;10.80;99.90
23073;DHT22;67971;51.046;3.732;2023-04-30T02:15:15;10.80;99.90
23073;DHT22;67971;51.046;3.732;2023-04-30T02:17:41;10.80;99.90
23073;DHT22;67971;51.046;3.732;2023-04-30T02:20:07;10.60;99.90
23073;DHT22;67971;51.046;3.732;2023-04-30T02:22:34;10.70;99.90
23073;DHT22;67971;51.046;3.732;2023-04-30T02:25:00;10.50;99.90
23073;DHT22;67971;51.046;3.732;2023-04-30T02:27:28;10.60;99.90
23073;DHT22;67971;51.046;3.732;2023-04-30T02:29:54;10.70;99.90
23073;DHT22;67971;51.046;3.732;2023-04-30T02:32:20;10.80;99.90
23073;DHT22;67971;51.046;3.732;2023-04-30T02:34:46;10.90;99.90
23073;DHT22;67971;51.046;3.732;2023-04-30T02:37:12;10.80;99.90
23073;DHT22;67971;51.046;3.732;2023-04-30T02:39:38;10.80;99.90
23073;DHT22;67971;51.046;3.732;2023-04-30T02:42:03;10.70;99.90
23073;DHT22;67971;51.046;3.732;2023-04-30T02:44:31;10.70;99.90
23073;DHT22;67971;51.046;3.732;2023-04-30T02:46:57;10.80;99.90
23073;DHT22;67971;51.046;3.732;2023-04-30T02:49:22;10.80;99.90
23073;DHT22;67971;51.046;3.732;2023-04-30T02:51:48;10.80;99.90
23073;DHT22;67971;51.046;3.732;2023-04-30T02:54:14;10.80;99.90
23073;DHT22;67971;51.046;3.732;2023-04-30T02:56:39;10.80;99.90
23073;DHT22;67971;51.046;3.732;2023-04-30T02:59:06;10.80;99.90
23073;DHT22;67971;51.046;3.732;2023-04-30T03:01:32;10.80;99.90
23073;DHT22;67971;51.046;3.732;2023-04-30T03:03:58;10.70;99.90
23073;DHT22;67971;51.046;3.732;2023-04-30T03:06:24;10.70;99.90
23073;DHT22;67971;51.046;3.732;2023-04-30T03:08:49;10.60;99.90
23073;DHT22;67971;51.046;3.732;2023-04-30T03:11:15;10.60;99.90
23073;DHT22;67971;51.046;3.732;2023-04-30T03:13:42;10.50;99.90
23073;DHT22;67971;51.046;3.732;2023-04-30T03:16:08;10.50;99.90
23073;DHT22;67971;51.046;3.732;2023-04-30T03:18:33;10.50;99.90
23073;DHT22;67971;51.046;3.732;2023-04-30T03:20:59;10.40;99.90
23073;DHT22;67971;51.046;3.732;2023-04-30T03:23:28;10.30;99.90
23073;DHT22;67971;51.046;3.732;2023-04-30T03:25:53;10.30;99.90
23073;DHT22;67971;51.046;3.732;2023-04-30T03:28:19;10.30;99.90
23073;DHT22;67971;51.046;3.732;2023-04-30T03:30:45;10.40;99.90
23073;DHT22;67971;51.046;3.732;2023-04-30T03:33:11;10.40;99.90
23073;DHT22;67971;51.046;3.732;2023-04-30T03:35:37;10.40;99.90
23073;DHT22;67971;51.046;3.732;2023-04-30T03:38:02;10.50;99.90
23073;DHT22;67971;51.046;3.732;2023-04-30T03:40:28;10.50;99.90
23073;DHT22;67971;51.046;3.732;2023-04-30T03:42:54;10.50;99.90
23073;DHT22;67971;51.046;3.732;2023-04-30T03:45:20;10.50;99.90
23073;DHT22;67971;51.046;3.732;2023-04-30T03:47:46;10.50;99.90
23073;DHT22;67971;51.046;3.732;2023-04-30T03:50:12;10.40;99.90
23073;DHT22;67971;51.046;3.732;2023-04-30T03:52:38;10.40;99.90
23073;DHT22;67971;51.046;3.732;2023-04-30T03:55:04;10.40;99.90
23073;DHT22;67971;51.046;3.732;2023-04-30T03:57:31;10.40;99.90
23073;DHT22;67971;51.046;3.732;2023-04-30T03:59:57;10.30;99.90
23073;DHT22;67971;51.046;3.732;2023-04-30T04:02:23;10.20;99.90
23073;DHT22;67971;51.046;3.732;2023-04-30T04:04:50;10.10;99.90
23073;DHT22;67971;51.046;3.732;2023-04-30T04:07:16;10.20;99.90
23073;DHT22;67971;51.046;3.732;2023-04-30T04:09:42;10.20;99.90
23073;DHT22;67971;51.046;3.732;2023-04-30T04:12:08;10.30;99.90
23073;DHT22;67971;51.046;3.732;2023-04-30T04:14:33;10.30;99.90
23073;DHT22;67971;51.046;3.732;2023-04-30T04:17:00;10.30;99.90
23073;DHT22;67971;51.046;3.732;2023-04-30T04:19:26;10.30;99.90
23073;DHT22;67971;51.046;3.732;2023-04-30T04:21:52;10.30;99.90
23073;DHT22;67971;51.046;3.732;2023-04-30T04:24:17;10.20;99.90
23073;DHT22;67971;51.046;3.732;2023-04-30T04:26:43;10.20;99.90
23073;DHT22;67971;51.046;3.732;2023-04-30T04:29:09;10.00;99.90
23073;DHT22;67971;51.046;3.732;2023-04-30T04:31:37;10.10;99.90
23073;DHT22;67971;51.046;3.732;2023-04-30T04:34:03;10.00;99.90
23073;DHT22;67971;51.046;3.732;2023-04-30T04:36:30;9.90;99.90
23073;DHT22;67971;51.046;3.732;2023-04-30T04:38:58;9.80;99.90
23073;DHT22;67971;51.046;3.732;2023-04-30T04:41:35;9.80;99.90
23073;DHT22;67971;51.046;3.732;2023-04-30T04:44:01;10.00;99.90
23073;DHT22;67971;51.046;3.732;2023-04-30T04:46:29;10.10;99.90
23073;DHT22;67971;51.046;3.732;2023-04-30T04:48:59;10.20;99.90
23073;DHT22;67971;51.046;3.732;2023-04-30T04:51:25;10.30;99.90
23073;DHT22;67971;51.046;3.732;2023-04-30T04:53:51;10.40;99.90
23073;DHT22;67971;51.046;3.732;2023-04-30T04:56:17;10.40;99.90
23073;DHT22;67971;51.046;3.732;2023-04-30T04:58:44;10.50;99.90
23073;DHT22;67971;51.046;3.732;2023-04-30T05:01:10;10.60;99.90
23073;DHT22;67971;51.046;3.732;2023-04-30T05:03:36;10.60;99.90
23073;DHT22;67971;51.046;3.732;2023-04-30T05:06:02;10.70;99.90
23073;DHT22;67971;51.046;3.732;2023-04-30T05:08:28;10.70;99.90
23073;DHT22;67971;51.046;3.732;2023-04-30T05:10:54;10.60;99.90
23073;DHT22;67971;51.046;3.732;2023-04-30T05:13:19;10.60;99.90
23073;DHT22;67971;51.046;3.732;2023-04-30T05:15:46;10.70;99.90
23073;DHT22;67971;51.046;3.732;2023-04-30T05:18:11;10.70;99.90
23073;DHT22;67971;51.046;3.732;2023-04-30T05:20:37;10.80;99.90
23073;DHT22;67971;51.046;3.732;2023-04-30T05:23:03;10.90;99.90
23073;DHT22;67971;51.046;3.732;2023-04-30T05:25:28;11.00;99.90
23073;DHT22;67971;51.046;3.732;2023-04-30T05:27:54;11.00;99.90
23073;DHT22;67971;51.046;3.732;2023-04-30T05:30:20;11.00;99.90
23073;DHT22;67971;51.046;3.732;2023-04-30T05:32:46;11.10;99.90
23073;DHT22;67971;51.046;3.732;2023-04-30T05:35:16;11.00;99.90
23073;DHT22;67971;51.046;3.732;2023-04-30T05:37:42;10.80;99.90
23073;DHT22;67971;51.046;3.732;2023-04-30T05:40:08;10.80;99.90
23073;DHT22;67971;51.046;3.732;2023-04-30T05:42:34;10.80;99.90
23073;DHT22;67971;51.046;3.732;2023-04-30T05:45:01;10.70;99.90
23073;DHT22;67971;51.046;3.732;2023-04-30T05:47:27;10.80;99.90
23073;DHT22;67971;51.046;3.732;2023-04-30T05:49:53;10.80;99.90
23073;DHT22;67971;51.046;3.732;2023-04-30T05:52:18;10.80;99.90
23073;DHT22;67971;51.046;3.732;2023-04-30T05:54:44;10.70;99.90
23073;DHT22;67971;51.046;3.732;2023-04-30T05:57:10;10.60;99.90
23073;DHT22;67971;51.046;3.732;2023-04-30T05:59:36;10.40;99.90
23073;DHT22;67971;51.046;3.732;2023-04-30T06:02:01;10.60;99.90
23073;DHT22;67971;51.046;3.732;2023-04-30T06:04:27;10.70;99.90
23073;DHT22;67971;51.046;3.732;2023-04-30T06:06:53;10.70;99.90
23073;DHT22;67971;51.046;3.732;2023-04-30T06:09:19;10.70;99.90
23073;DHT22;67971;51.046;3.732;2023-04-30T06:11:44;10.70;99.90
23073;DHT22;67971;51.046;3.732;2023-04-30T06:14:15;10.90;99.90
23073;DHT22;67971;51.046;3.732;2023-04-30T06:16:41;11.00;99.90
23073;DHT22;67971;51.046;3.732;2023-04-30T06:19:06;11.40;99.90
23073;DHT22;67971;51.046;3.732;2023-04-30T06:21:32;11.90;99.90
23073;DHT22;67971;51.046;3.732;2023-04-30T06:23:58;12.50;99.90
23073;DHT22;67971;51.046;3.732;2023-04-30T06:26:23;13.20;99.90
23073;DHT22;67971;51.046;3.732;2023-04-30T06:28:49;13.90;99.90
23073;DHT22;67971;51.046;3.732;2023-04-30T06:31:15;14.40;99.90
23073;DHT22;67971;51.046;3.732;2023-04-30T06:33:41;15.00;99.90
23073;DHT22;67971;51.046;3.732;2023-04-30T06:36:06;15.40;99.90
23073;DHT22;67971;51.046;3.732;2023-04-30T06:38:32;15.50;99.90
23073;DHT22;67971;51.046;3.732;2023-04-30T06:40:57;15.90;99.90
23073;DHT22;67971;51.046;3.732;2023-04-30T06:43:23;16.10;99.90
23073;DHT22;67971;51.046;3.732;2023-04-30T06:45:49;15.90;99.90
23073;DHT22;67971;51.046;3.732;2023-04-30T06:48:15;16.50;99.90
23073;DHT22;67971;51.046;3.732;2023-04-30T06:50:40;16.80;99.90
23073;DHT22;67971;51.046;3.732;2023-04-30T06:53:13;16.90;99.90
23073;DHT22;67971;51.046;3.732;2023-04-30T06:55:39;17.50;99.90
23073;DHT22;67971;51.046;3.732;2023-04-30T06:58:05;18.10;99.90
23073;DHT22;67971;51.046;3.732;2023-04-30T07:00:33;18.50;99.90
23073;DHT22;67971;51.046;3.732;2023-04-30T07:02:58;18.40;99.90
23073;DHT22;67971;51.046;3.732;2023-04-30T07:05:27;18.40;99.90
23073;DHT22;67971;51.046;3.732;2023-04-30T07:07:53;18.20;99.90
23073;DHT22;67971;51.046;3.732;2023-04-30T07:10:19;17.90;99.90
23073;DHT22;67971;51.046;3.732;2023-04-30T07:12:45;17.50;99.90
23073;DHT22;67971;51.046;3.732;2023-04-30T07:15:11;17.50;99.90
23073;DHT22;67971;51.046;3.732;2023-04-30T07:17:37;17.50;99.90
23073;DHT22;67971;51.046;3.732;2023-04-30T07:20:03;17.80;99.90
23073;DHT22;67971;51.046;3.732;2023-04-30T07:22:32;18.50;99.90
23073;DHT22;67971;51.046;3.732;2023-04-30T07:24:58;19.20;99.90
23073;DHT22;67971;51.046;3.732;2023-04-30T07:27:25;19.40;99.90
23073;DHT22;67971;51.046;3.732;2023-04-30T07:29:51;19.90;99.90
23073;DHT22;67971;51.046;3.732;2023-04-30T07:32:16;20.90;99.90
23073;DHT22;67971;51.046;3.732;2023-04-30T07:34:42;21.80;99.90
23073;DHT22;67971;51.046;3.732;2023-04-30T07:37:08;22.50;99.90
23073;DHT22;67971;51.046;3.732;2023-04-30T07:39:34;23.10;99.90
23073;DHT22;67971;51.046;3.732;2023-04-30T07:42:02;23.00;99.90
23073;DHT22;67971;51.046;3.732;2023-04-30T07:44:29;22.70;99.90
23073;DHT22;67971;51.046;3.732;2023-04-30T07:46:55;22.80;99.90
23073;DHT22;67971;51.046;3.732;2023-04-30T07:49:20;23.00;99.90
23073;DHT22;67971;51.046;3.732;2023-04-30T07:51:46;23.60;99.90
23073;DHT22;67971;51.046;3.732;2023-04-30T07:54:13;24.00;99.90
23073;DHT22;67971;51.046;3.732;2023-04-30T07:56:38;24.20;99.90
23073;DHT22;67971;51.046;3.732;2023-04-30T07:59:04;24.60;99.90
23073;DHT22;67971;51.046;3.732;2023-04-30T08:01:30;25.10;99.90
23073;DHT22;67971;51.046;3.732;2023-04-30T08:03:56;26.60;99.90
23073;DHT22;67971;51.046;3.732;2023-04-30T08:06:22;26.60;99.90
23073;DHT22;67971;51.046;3.732;2023-04-30T08:08:48;26.80;99.90
23073;DHT22;67971;51.046;3.732;2023-04-30T08:11:14;26.80;99.90
23073;DHT22;67971;51.046;3.732;2023-04-30T08:13:41;26.80;99.90
23073;DHT22;67971;51.046;3.732;2023-04-30T08:16:07;26.90;99.90
23073;DHT22;67971;51.046;3.732;2023-04-30T08:18:33;26.50;99.90
23073;DHT22;67971;51.046;3.732;2023-04-30T08:20:59;25.60;99.90
23073;DHT22;67971;51.046;3.732;2023-04-30T08:23:26;25.20;99.90
23073;DHT22;67971;51.046;3.732;2023-04-30T08:25:52;24.90;99.90
23073;DHT22;67971;51.046;3.732;2023-04-30T08:28:19;25.20;99.90
23073;DHT22;67971;51.046;3.732;2023-04-30T08:30:44;26.00;99.90
23073;DHT22;67971;51.046;3.732;2023-04-30T08:33:10;27.00;99.90
23073;DHT22;67971;51.046;3.732;2023-04-30T08:35:36;28.10;99.90
23073;DHT22;67971;51.046;3.732;2023-04-30T08:38:02;29.30;99.00
23073;DHT22;67971;51.046;3.732;2023-04-30T08:40:28;29.30;99.10
23073;DHT22;67971;51.046;3.732;2023-04-30T08:43:13;28.90;98.30
23073;DHT22;67971;51.046;3.732;2023-04-30T08:45:40;28.60;96.80
23073;DHT22;67971;51.046;3.732;2023-04-30T08:48:09;27.40;97.40
23073;DHT22;67971;51.046;3.732;2023-04-30T08:50:35;26.90;97.30
23073;DHT22;67971;51.046;3.732;2023-04-30T08:53:01;25.60;98.90
23073;DHT22;67971;51.046;3.732;2023-04-30T08:55:28;25.50;99.00
23073;DHT22;67971;51.046;3.732;2023-04-30T08:57:54;25.90;99.90
23073;DHT22;67971;51.046;3.732;2023-04-30T09:00:20;26.10;98.80
23073;DHT22;67971;51.046;3.732;2023-04-30T09:02:47;26.60;99.60
23073;DHT22;67971;51.046;3.732;2023-04-30T09:05:14;27.20;97.70
23073;DHT22;67971;51.046;3.732;2023-04-30T09:07:41;26.90;98.00
23073;DHT22;67971;51.046;3.732;2023-04-30T09:10:15;27.00;98.20
23073;DHT22;67971;51.046;3.732;2023-04-30T09:12:42;27.20;97.60
23073;DHT22;67971;51.046;3.732;2023-04-30T09:15:11;27.20;97.60
23073;DHT22;67971;51.046;3.732;2023-04-30T09:17:37;28.00;97.50
23073;DHT22;67971;51.046;3.732;2023-04-30T09:20:09;29.00;97.70
23073;DHT22;67971;51.046;3.732;2023-04-30T09:22:36;30.30;96.00
23073;DHT22;67971;51.046;3.732;2023-04-30T09:25:02;31.40;94.70
23073;DHT22;67971;51.046;3.732;2023-04-30T09:27:28;31.80;93.10
23073;DHT22;67971;51.046;3.732;2023-04-30T09:29:54;31.90;92.50
23073;DHT22;67971;51.046;3.732;2023-04-30T09:32:20;32.50;91.50
23073;DHT22;67971;51.046;3.732;2023-04-30T09:34:46;32.10;91.00
23073;DHT22;67971;51.046;3.732;2023-04-30T09:37:12;32.40;90.30
23073;DHT22;67971;51.046;3.732;2023-04-30T09:39:48;32.50;90.40
23073;DHT22;67971;51.046;3.732;2023-04-30T09:42:15;32.80;90.60
23073;DHT22;67971;51.046;3.732;2023-04-30T09:44:43;32.50;88.40
23073;DHT22;67971;51.046;3.732;2023-04-30T09:47:18;32.10;88.40
23073;DHT22;67971;51.046;3.732;2023-04-30T09:49:49;32.70;89.30
23073;DHT22;67971;51.046;3.732;2023-04-30T09:52:18;33.30;86.60
23073;DHT22;67971;51.046;3.732;2023-04-30T09:54:45;34.00;85.30
23073;DHT22;67971;51.046;3.732;2023-04-30T09:57:14;33.90;81.50
23073;DHT22;67971;51.046;3.732;2023-04-30T09:59:44;32.60;81.10
23073;DHT22;67971;51.046;3.732;2023-04-30T10:02:13;32.00;82.50
23073;DHT22;67971;51.046;3.732;2023-04-30T10:04:42;31.90;82.40
23073;DHT22;67971;51.046;3.732;2023-04-30T10:07:11;32.20;83.00
23073;DHT22;67971;51.046;3.732;2023-04-30T10:12:18;34.10;79.50
23073;DHT22;67971;51.046;3.732;2023-04-30T10:14:51;34.40;78.80
23073;DHT22;67971;51.046;3.732;2023-04-30T10:17:17;34.50;77.60
23073;DHT22;67971;51.046;3.732;2023-04-30T10:19:48;33.70;76.10
23073;DHT22;67971;51.046;3.732;2023-04-30T10:22:17;33.20;76.00
23073;DHT22;67971;51.046;3.732;2023-04-30T10:24:44;33.10;75.30
23073;DHT22;67971;51.046;3.732;2023-04-30T10:27:11;33.30;77.80
23073;DHT22;67971;51.046;3.732;2023-04-30T10:29:37;34.10;77.20
23073;DHT22;67971;51.046;3.732;2023-04-30T10:32:03;34.70;77.30
23073;DHT22;67971;51.046;3.732;2023-04-30T10:34:59;35.80;73.40
23073;DHT22;67971;51.046;3.732;2023-04-30T10:37:39;35.90;70.70
23073;DHT22;67971;51.046;3.732;2023-04-30T10:40:08;34.80;71.60
23073;DHT22;67971;51.046;3.732;2023-04-30T10:42:35;35.30;70.30
23073;DHT22;67971;51.046;3.732;2023-04-30T10:45:04;35.30;68.90
23073;DHT22;67971;51.046;3.732;2023-04-30T10:47:30;36.00;69.10
23073;DHT22;67971;51.046;3.732;2023-04-30T10:50:07;36.00;67.60
23073;DHT22;67971;51.046;3.732;2023-04-30T10:52:33;35.60;67.50
23073;DHT22;67971;51.046;3.732;2023-04-30T10:55:06;33.40;68.40
23073;DHT22;67971;51.046;3.732;2023-04-30T10:57:40;32.90;71.40
23073;DHT22;67971;51.046;3.732;2023-04-30T11:02:43;34.90;65.10
23073;DHT22;67971;51.046;3.732;2023-04-30T11:05:14;33.20;64.60
23073;DHT22;67971;51.046;3.732;2023-04-30T11:07:48;32.00;67.30
23073;DHT22;67971;51.046;3.732;2023-04-30T11:10:14;31.70;68.90
23073;DHT22;67971;51.046;3.732;2023-04-30T11:12:47;32.50;67.20
23073;DHT22;67971;51.046;3.732;2023-04-30T11:15:15;32.20;66.50
23073;DHT22;67971;51.046;3.732;2023-04-30T11:17:43;31.50;67.70
23073;DHT22;67971;51.046;3.732;2023-04-30T11:20:12;32.10;69.60
23073;DHT22;67971;51.046;3.732;2023-04-30T11:22:38;33.20;69.70
23073;DHT22;67971;51.046;3.732;2023-04-30T11:25:11;34.90;68.50
23073;DHT22;67971;51.046;3.732;2023-04-30T11:27:43;35.20;65.00
23073;DHT22;67971;51.046;3.732;2023-04-30T11:30:11;34.10;64.50
23073;DHT22;67971;51.046;3.732;2023-04-30T11:32:39;33.80;64.70
23073;DHT22;67971;51.046;3.732;2023-04-30T11:35:06;32.10;67.90
23073;DHT22;67971;51.046;3.732;2023-04-30T11:37:35;29.70;66.50
23073;DHT22;67971;51.046;3.732;2023-04-30T11:40:04;28.20;71.30
23073;DHT22;67971;51.046;3.732;2023-04-30T11:42:32;28.60;72.10
23073;DHT22;67971;51.046;3.732;2023-04-30T11:45:05;28.50;68.50
23073;DHT22;67971;51.046;3.732;2023-04-30T11:47:45;28.40;70.50
23073;DHT22;67971;51.046;3.732;2023-04-30T11:50:19;28.60;69.30
23073;DHT22;67971;51.046;3.732;2023-04-30T11:52:50;28.00;70.40
23073;DHT22;67971;51.046;3.732;2023-04-30T11:55:21;27.60;72.10
23073;DHT22;67971;51.046;3.732;2023-04-30T11:57:52;27.30;70.70
23073;DHT22;67971;51.046;3.732;2023-04-30T12:00:24;27.50;72.50
23073;DHT22;67971;51.046;3.732;2023-04-30T12:02:50;27.70;72.70
23073;DHT22;67971;51.046;3.732;2023-04-30T12:05:23;29.40;73.00
23073;DHT22;67971;51.046;3.732;2023-04-30T12:07:56;31.20;69.60
23073;DHT22;67971;51.046;3.732;2023-04-30T12:10:24;33.20;69.40
23073;DHT22;67971;51.046;3.732;2023-04-30T12:12:50;33.80;66.20
23073;DHT22;67971;51.046;3.732;2023-04-30T12:15:19;33.60;65.20
23073;DHT22;67971;51.046;3.732;2023-04-30T12:17:47;32.90;63.60
23073;DHT22;67971;51.046;3.732;2023-04-30T12:20:14;31.80;65.50
23073;DHT22;67971;51.046;3.732;2023-04-30T12:22:43;30.40;67.30
23073;DHT22;67971;51.046;3.732;2023-04-30T12:25:14;29.30;68.70
23073;DHT22;67971;51.046;3.732;2023-04-30T12:27:51;29.40;67.90
23073;DHT22;67971;51.046;3.732;2023-04-30T12:30:24;30.50;66.40
23073;DHT22;67971;51.046;3.732;2023-04-30T12:32:56;29.40;69.60
23073;DHT22;67971;51.046;3.732;2023-04-30T12:35:23;30.80;68.50
23073;DHT22;67971;51.046;3.732;2023-04-30T12:38:00;31.20;67.10
23073;DHT22;67971;51.046;3.732;2023-04-30T12:40:27;31.90;65.70
23073;DHT22;67971;51.046;3.732;2023-04-30T12:43:19;32.10;64.70
23073;DHT22;67971;51.046;3.732;2023-04-30T12:45:48;32.40;65.10
23073;DHT22;67971;51.046;3.732;2023-04-30T12:48:24;32.40;64.50
23073;DHT22;67971;51.046;3.732;2023-04-30T12:50:52;31.30;64.20
23073;DHT22;67971;51.046;3.732;2023-04-30T12:53:19;29.60;66.60
23073;DHT22;67971;51.046;3.732;2023-04-30T12:56:08;29.70;67.90
23073;DHT22;67971;51.046;3.732;2023-04-30T12:58:34;29.10;68.80
23073;DHT22;67971;51.046;3.732;2023-04-30T13:01:00;29.40;68.20
23073;DHT22;67971;51.046;3.732;2023-04-30T13:03:26;30.60;66.70
23073;DHT22;67971;51.046;3.732;2023-04-30T13:05:51;31.50;66.10
23073;DHT22;67971;51.046;3.732;2023-04-30T13:08:19;33.00;64.80
23073;DHT22;67971;51.046;3.732;2023-04-30T13:10:46;33.70;64.90
23073;DHT22;67971;51.046;3.732;2023-04-30T13:13:13;33.70;61.40
23073;DHT22;67971;51.046;3.732;2023-04-30T13:15:39;31.40;63.00
23073;DHT22;67971;51.046;3.732;2023-04-30T13:18:06;30.50;65.20
23073;DHT22;67971;51.046;3.732;2023-04-30T13:20:35;30.10;67.60
23073;DHT22;67971;51.046;3.732;2023-04-30T13:23:01;30.10;67.20
23073;DHT22;67971;51.046;3.732;2023-04-30T13:25:27;29.80;65.50
23073;DHT22;67971;51.046;3.732;2023-04-30T13:27:52;28.50;68.20
23073;DHT22;67971;51.046;3.732;2023-04-30T13:30:18;28.60;68.00
23073;DHT22;67971;51.046;3.732;2023-04-30T13:32:44;28.30;68.30
23073;DHT22;67971;51.046;3.732;2023-04-30T13:35:10;28.40;68.80
23073;DHT22;67971;51.046;3.732;2023-04-30T13:37:37;28.40;68.30
23073;DHT22;67971;51.046;3.732;2023-04-30T13:40:05;28.40;69.20
23073;DHT22;67971;51.046;3.732;2023-04-30T13:42:31;28.60;67.50
23073;DHT22;67971;51.046;3.732;2023-04-30T13:44:56;28.60;68.00
23073;DHT22;67971;51.046;3.732;2023-04-30T13:47:22;28.00;69.10
23073;DHT22;67971;51.046;3.732;2023-04-30T13:49:48;26.40;70.60
23073;DHT22;67971;51.046;3.732;2023-04-30T13:52:13;25.30;73.90
23073;DHT22;67971;51.046;3.732;2023-04-30T13:54:39;25.20;74.70
23073;DHT22;67971;51.046;3.732;2023-04-30T13:57:06;26.70;74.00
23073;DHT22;67971;51.046;3.732;2023-04-30T13:59:32;28.10;70.10
23073;DHT22;67971;51.046;3.732;2023-04-30T14:01:58;28.10;69.60
23073;DHT22;67971;51.046;3.732;2023-04-30T14:04:23;29.30;69.50
23073;DHT22;67971;51.046;3.732;2023-04-30T14:06:50;31.40;69.50
23073;DHT22;67971;51.046;3.732;2023-04-30T14:09:17;33.30;66.40
23073;DHT22;67971;51.046;3.732;2023-04-30T14:11:42;34.50;64.70
23073;DHT22;67971;51.046;3.732;2023-04-30T14:14:08;34.80;64.00
23073;DHT22;67971;51.046;3.732;2023-04-30T14:16:34;33.50;63.10
23073;DHT22;67971;51.046;3.732;2023-04-30T14:18:59;32.10;64.40
23073;DHT22;67971;51.046;3.732;2023-04-30T14:21:25;30.50;65.40
23073;DHT22;67971;51.046;3.732;2023-04-30T14:23:53;29.20;67.90
23073;DHT22;67971;51.046;3.732;2023-04-30T14:26:19;29.50;68.50
23073;DHT22;67971;51.046;3.732;2023-04-30T14:28:46;30.60;67.20
23073;DHT22;67971;51.046;3.732;2023-04-30T14:31:12;30.10;67.30
23073;DHT22;67971;51.046;3.732;2023-04-30T14:33:38;29.50;67.00
23073;DHT22;67971;51.046;3.732;2023-04-30T14:36:04;28.50;68.70
23073;DHT22;67971;51.046;3.732;2023-04-30T14:38:30;28.00;68.80
23073;DHT22;67971;51.046;3.732;2023-04-30T14:40:56;27.20;70.00
23073;DHT22;67971;51.046;3.732;2023-04-30T14:43:22;27.30;69.50
23073;DHT22;67971;51.046;3.732;2023-04-30T14:45:48;27.70;70.70
23073;DHT22;67971;51.046;3.732;2023-04-30T14:48:14;28.60;71.60
23073;DHT22;67971;51.046;3.732;2023-04-30T14:50:40;30.10;69.90
23073;DHT22;67971;51.046;3.732;2023-04-30T14:53:05;30.40;69.10
23073;DHT22;67971;51.046;3.732;2023-04-30T14:55:31;30.70;68.90
23073;DHT22;67971;51.046;3.732;2023-04-30T14:57:58;30.40;67.40
23073;DHT22;67971;51.046;3.732;2023-04-30T15:00:24;29.00;68.40
23073;DHT22;67971;51.046;3.732;2023-04-30T15:02:49;28.30;69.40
23073;DHT22;67971;51.046;3.732;2023-04-30T15:05:15;26.80;69.40
23073;DHT22;67971;51.046;3.732;2023-04-30T15:07:41;26.50;69.30
23073;DHT22;67971;51.046;3.732;2023-04-30T15:10:08;26.30;71.20
23073;DHT22;67971;51.046;3.732;2023-04-30T15:12:34;26.60;70.90
23073;DHT22;67971;51.046;3.732;2023-04-30T15:15:01;26.00;71.60
23073;DHT22;67971;51.046;3.732;2023-04-30T15:17:27;25.50;72.80
23073;DHT22;67971;51.046;3.732;2023-04-30T15:19:53;25.20;73.80
23073;DHT22;67971;51.046;3.732;2023-04-30T15:22:20;25.60;73.40
23073;DHT22;67971;51.046;3.732;2023-04-30T15:24:45;25.60;72.00
23073;DHT22;67971;51.046;3.732;2023-04-30T15:27:11;25.20;73.50
23073;DHT22;67971;51.046;3.732;2023-04-30T15:29:37;24.80;73.30
23073;DHT22;67971;51.046;3.732;2023-04-30T15:32:04;24.50;73.90
23073;DHT22;67971;51.046;3.732;2023-04-30T15:34:30;24.70;75.40
23073;DHT22;67971;51.046;3.732;2023-04-30T15:36:56;24.90;74.30
23073;DHT22;67971;51.046;3.732;2023-04-30T15:39:23;25.00;74.30
23073;DHT22;67971;51.046;3.732;2023-04-30T15:41:49;25.20;75.50
23073;DHT22;67971;51.046;3.732;2023-04-30T15:44:15;25.40;73.90
23073;DHT22;67971;51.046;3.732;2023-04-30T15:46:41;25.60;74.70
23073;DHT22;67971;51.046;3.732;2023-04-30T15:49:06;26.70;73.10
23073;DHT22;67971;51.046;3.732;2023-04-30T15:51:32;27.50;71.20
23073;DHT22;67971;51.046;3.732;2023-04-30T15:53:59;27.60;70.50